createdAt,value
2022-11-13T03:43:24.032Z,9.30
2022-11-13T10:17:28.573Z,7.90
2022-11-13T10:20:02.382Z,10.70
2022-11-13T10:22:49.478Z,10.90
2022-11-13T10:25:22.660Z,11.00
2022-11-13T10:28:35.000Z,11.10
2022-11-13T10:30:56.298Z,11.30
2022-11-13T10:33:23.924Z,11.60
2022-11-13T10:41:21.735Z,11.70
2022-11-13T10:43:55.204Z,12.70
2022-11-13T10:46:30.002Z,13.00
2022-11-13T10:49:13.292Z,13.60
2022-11-13T11:02:20.565Z,13.90
2022-11-13T11:04:47.901Z,15.70
2022-11-13T11:07:23.529Z,15.80
2022-11-13T11:35:45.943Z,16.10
2022-11-13T11:38:39.858Z,18.20
2022-11-13T11:41:16.270Z,18.50
2022-11-13T11:43:54.384Z,17.90
2022-11-13T11:46:24.649Z,18.10
2022-11-13T11:48:51.992Z,18.50
2022-11-13T11:51:37.371Z,18.20
2022-11-13T11:54:15.207Z,18.10
2022-11-13T11:56:50.865Z,19.00
2022-11-13T11:59:38.275Z,19.50
2022-11-13T12:02:14.409Z,18.90
2022-11-13T12:05:04.731Z,19.30
2022-11-13T12:08:08.683Z,19.20
2022-11-13T12:10:50.541Z,19.00
2022-11-13T12:13:27.436Z,19.90
2022-11-13T12:16:05.813Z,20.10
2022-11-13T12:18:47.464Z,19.60
2022-11-13T12:22:04.029Z,20.20
2022-11-13T12:24:57.189Z,20.70
2022-11-13T12:27:36.033Z,20.80
2022-11-13T12:30:08.876Z,20.90
2022-11-13T12:35:15.683Z,21.30
2022-11-13T12:38:13.166Z,21.40
2022-11-13T12:41:07.654Z,21.60
2022-11-13T12:43:52.754Z,21.30
2022-11-13T12:46:19.852Z,20.90
2022-11-13T12:48:48.135Z,22.00
2022-11-13T12:51:17.391Z,22.10
2022-11-13T12:53:53.642Z,21.80
2022-11-13T12:56:27.624Z,21.50
2022-11-13T12:59:28.488Z,22.30
2022-11-13T13:02:06.980Z,22.00
2022-11-13T13:04:52.377Z,22.30
2022-11-13T13:07:51.114Z,22.70
2022-11-13T13:10:29.263Z,22.90
2022-11-13T13:13:09.696Z,21.90
2022-11-13T13:15:38.014Z,21.90
2022-11-13T13:18:16.575Z,22.50
2022-11-13T13:21:17.693Z,22.90
2022-11-13T13:23:47.296Z,22.20
2022-11-13T13:26:28.389Z,22.50
2022-11-13T13:29:11.572Z,22.80
2022-11-13T13:31:44.231Z,22.60
2022-11-13T13:34:42.836Z,22.40
2022-11-13T13:37:28.153Z,21.80
2022-11-13T13:40:09.660Z,21.80
2022-11-13T13:43:08.794Z,21.70
2022-11-13T13:46:15.097Z,21.90
2022-11-13T13:48:44.786Z,21.40
2022-11-13T13:51:39.988Z,20.50
2022-11-13T13:54:08.667Z,20.40
2022-11-13T13:56:41.829Z,20.10
2022-11-13T13:59:26.231Z,20.00
2022-11-13T14:02:01.389Z,19.40
2022-11-13T14:04:35.327Z,19.10
2022-11-13T14:07:02.858Z,18.70
2022-11-13T14:09:30.793Z,18.30
2022-11-13T14:12:07.776Z,18.20
2022-11-13T14:14:39.125Z,18.40
2022-11-13T14:17:06.963Z,18.20
2022-11-13T14:19:33.854Z,18.10
2022-11-13T14:22:02.831Z,18.10
2022-11-13T14:24:38.256Z,17.90
2022-11-13T14:27:11.168Z,17.80
2022-11-13T14:29:45.754Z,17.60
2022-11-13T14:32:40.082Z,17.60
2022-11-13T14:35:20.151Z,17.40
2022-11-13T14:37:48.436Z,17.40
2022-11-13T14:40:31.642Z,17.30
2022-11-13T14:43:01.570Z,16.90
2022-11-13T14:45:31.080Z,16.90
2022-11-13T14:48:01.004Z,16.90
2022-11-13T14:50:34.491Z,16.70
2022-11-13T14:53:07.988Z,16.60
2022-11-13T14:55:49.968Z,16.40
2022-11-13T14:58:28.128Z,16.30
2022-11-13T15:00:57.563Z,16.30
2022-11-13T15:03:25.323Z,16.20
2022-11-13T15:05:52.152Z,16.00
2022-11-13T15:08:19.219Z,16.00
2022-11-13T15:10:46.191Z,16.00
2022-11-13T15:13:14.950Z,15.90
2022-11-13T15:15:42.180Z,15.80
2022-11-13T15:18:16.529Z,15.70
2022-11-13T15:20:44.702Z,15.60
2022-11-13T15:23:16.624Z,15.50
2022-11-13T15:25:43.528Z,15.50
2022-11-13T15:28:10.456Z,15.40
2022-11-13T15:30:37.307Z,15.30
2022-11-13T16:12:55.510Z,15.20
2022-11-13T16:22:46.471Z,13.70
2022-11-13T16:25:16.770Z,13.30
2022-11-13T16:35:16.436Z,13.30
2022-11-13T16:37:43.907Z,13.30
2022-11-13T16:40:22.583Z,13.40
2022-11-13T16:42:49.448Z,12.90
2022-11-13T16:45:17.742Z,12.90
2022-11-13T16:47:45.824Z,12.80
2022-11-13T16:50:15.274Z,12.80
2022-11-13T16:52:42.423Z,12.80
2022-11-13T16:55:09.277Z,12.80
2022-11-13T17:00:08.008Z,12.60
2022-11-13T17:02:34.786Z,12.60
2022-11-13T17:05:01.497Z,12.50
2022-11-13T17:07:28.468Z,12.50
2022-11-13T17:10:24.094Z,12.50
2022-11-13T17:12:42.332Z,12.50
2022-11-13T17:15:10.235Z,12.40
2022-11-13T17:17:37.014Z,12.40
2022-11-13T17:42:08.461Z,12.30
2022-11-13T17:44:35.169Z,12.10
2022-11-13T17:47:01.886Z,12.10
2022-11-13T17:49:29.020Z,12.00
2022-11-13T18:14:02.316Z,12.00
2022-11-13T18:16:34.676Z,11.50
2022-11-13T18:19:03.671Z,11.40
2022-11-13T18:21:33.682Z,11.30
2022-11-13T18:24:09.778Z,11.40
2022-11-13T18:26:36.911Z,11.40
2022-11-13T18:29:04.022Z,11.30
2022-11-13T18:31:30.917Z,11.30
2022-11-13T18:33:59.535Z,11.30
2022-11-13T19:34:00.778Z,11.20
2022-11-13T19:36:29.892Z,10.60
2022-11-13T19:38:57.672Z,10.50
2022-11-13T19:41:25.348Z,10.50
2022-11-13T19:43:52.145Z,10.50
2022-11-13T19:58:44.553Z,10.50
2022-11-13T20:01:13.205Z,10.20
2022-11-13T20:38:28.672Z,9.50
2022-11-13T20:55:50.310Z,9.50
2022-11-13T21:00:44.775Z,9.20
2022-11-13T21:03:11.539Z,9.00
2022-11-13T21:05:38.302Z,9.00
2022-11-13T21:08:05.098Z,9.10
2022-11-13T21:10:33.770Z,9.00
2022-11-13T21:13:00.590Z,9.10
2022-11-13T21:20:21.863Z,8.90
2022-11-13T21:22:48.626Z,8.90
2022-11-13T21:25:17.677Z,8.90
2022-11-13T21:27:44.417Z,8.90
2022-11-13T21:30:11.753Z,8.70
2022-11-13T21:32:39.088Z,8.80
2022-11-13T21:35:06.215Z,8.70
2022-11-13T21:37:34.073Z,8.70
2022-11-13T21:40:01.471Z,8.60
2022-11-13T21:42:28.305Z,8.70
2022-11-13T23:16:24.131Z,8.60
2022-11-13T23:18:51.897Z,7.70
2022-11-13T23:21:19.103Z,7.80
2022-11-13T23:23:45.997Z,7.70
2022-11-13T23:26:13.979Z,7.70
2022-11-13T23:28:41.189Z,7.70
2022-11-13T23:33:35.313Z,7.70
2022-11-13T23:36:02.304Z,7.50
